Walton Smith — WCZ6292 — position and weather

sailwx.info

Track history (hours):
 
Tides and Currents Weather Stations Pressure Air Temp Water Temp Dewpoint Dewpoint Depression Visibility Wind Speed Wind Dir Waves Ship Positions

Oceanographic research ship Walton Smith (USA)

Detailed information on ship capabilities available from University of Delaware's Ocean Information Center.

Owner: UNIVERSITY OF MIAMI, MIAMI, FL. More information available from US FCC via Universal Licensing System and Coast Guard Vessel Documentation Center.

Last reported at 2020-Jun-23 13:30 UTC. Time now 2020-Jul-14 12:19 UTC.
Position N 27°56' W 082°27'.
Warning: this ship's position is 20 days out of date.

; draft 2 m.

MMSI: 367020910.

Date/timePositionNaut miles runAvg speedWind from/ knotsBaromVisibWave heightAir tempDewpointWater temp
2020-Jun-23 13:30N 27°56' W 082°27'0 0.0
2020-Jun-23 11:00N 27°56' W 082°27'0 0.0
2020-Jun-23 10:30N 27°56' W 082°27'0 0.0
2020-Jun-23 10:00N 27°56' W 082°27'0 0.0
2020-Jun-23 09:30N 27°56' W 082°27'0 0.0
2020-Jun-23 08:30N 27°56' W 082°27'0 0.0
2020-Jun-23 05:30N 27°56' W 082°27'0 0.0
2020-Jun-23 04:49N 27°56' W 082°27'0 0.0
2020-Jun-23 04:00N 27°56' W 082°27'0 0.0
2020-Jun-23 03:01N 27°56' W 082°27'0 0.0
2020-Jun-23 01:30N 27°56' W 082°27'0 0.0
2020-Jun-22 23:30N 27°56' W 082°27'0 0.0
2020-Jun-22 21:30N 27°56' W 082°27'0 0.0
2020-Jun-22 21:00N 27°56' W 082°27'0 0.0
2020-Jun-22 20:30N 27°56' W 082°27'0 0.0
2020-Jun-22 20:00N 27°56' W 082°27'0 0.0
2020-Jun-22 16:30N 27°56' W 082°27'6 3.0
2020-Jun-22 14:30N 27°50' W 082°27'3 6.8
2020-Jun-22 14:00N 27°48' W 082°29'185 3.8
2020-Jun-20 13:18N 25°33' W 080°08'6 7.6
2020-Jun-20 12:30N 25°39' W 080°08'3 6.4
2020-Jun-20 12:00N 25°40' W 080°11'4 7.1
2020-Jun-20 11:30N 25°43' W 080°10'1 1.3
2020-Jun-20 11:00N 25°44' W 080°10'0 0.0
2020-Jun-20 08:30N 25°44' W 080°10'0 0.0
2020-Jun-20 07:30N 25°44' W 080°10'0 0.0
2020-Jun-20 06:30N 25°44' W 080°10'0 0.0
2020-Jun-20 02:30N 25°44' W 080°10'0 0.0
2020-Jun-20 00:00N 25°44' W 080°10'0 0.0
2020-Jun-19 20:00N 25°44' W 080°10'0 0.0
2020-Jun-19 17:00N 25°44' W 080°10'0 0.0
2020-Jun-19 16:30N 25°44' W 080°10'0 0.0
2020-Jun-19 15:00N 25°44' W 080°10'0 0.0
2020-Jun-19 11:00N 25°44' W 080°10'0 0.0
2020-Jun-19 10:00N 25°44' W 080°10'0 0.0
2020-Jun-19 09:00N 25°44' W 080°10'0 0.0
2020-Jun-19 08:30N 25°44' W 080°10'0 0.0
2020-Jun-19 06:00N 25°44' W 080°10'0 0.0
2020-Jun-19 05:00N 25°44' W 080°10'0 0.0
2020-Jun-18 22:00N 25°44' W 080°10'0 0.0
2020-Jun-18 21:30N 25°44' W 080°10'0 0.0
2020-Jun-18 19:30N 25°44' W 080°10'0 0.0
2020-Jun-18 18:00N 25°44' W 080°10'0 0.0
2020-Jun-18 17:00N 25°44' W 080°10'0 0.0
2020-Jun-18 15:30N 25°44' W 080°10'0 0.0
2020-Jun-18 15:00N 25°44' W 080°10'0 0.0
2020-Jun-18 13:30N 25°44' W 080°10'0 0.0
2020-Jun-18 11:30N 25°44' W 080°10'0 0.0
2020-Jun-18 11:00N 25°44' W 080°10'0 0.0
2020-Jun-18 10:30N 25°44' W 080°10'0 0.0
2020-Jun-18 06:30N 25°44' W 080°10'0 0.0
2020-Jun-18 04:30N 25°44' W 080°10'0 0.0
2020-Jun-18 02:30N 25°44' W 080°10'0 0.0
2020-Jun-18 01:30N 25°44' W 080°10'0 0.0
2020-Jun-17 22:30N 25°44' W 080°10'0 0.0
2020-Jun-17 20:00N 25°44' W 080°10'0 0.0
2020-Jun-17 19:30N 25°44' W 080°10'0 0.0
2020-Jun-17 19:00N 25°44' W 080°10'0 0.0
2020-Jun-17 18:30N 25°44' W 080°10'0 0.0
2020-Jun-17 17:30N 25°44' W 080°10'0 0.0
2020-Jun-17 15:00N 25°44' W 080°10'0 0.0
2020-Jun-17 14:30N 25°44' W 080°10'0 0.0
2020-Jun-17 13:00N 25°44' W 080°10'0 0.0
2020-Jun-17 11:30N 25°44' W 080°10'0 0.0
2020-Jun-17 10:30N 25°44' W 080°10'0 0.0
2020-Jun-17 10:00N 25°44' W 080°10'0 0.0
2020-Jun-17 05:00N 25°44' W 080°10'0 0.0
2020-Jun-17 04:30N 25°44' W 080°10'0 0.0
2020-Jun-17 03:00N 25°44' W 080°10'0 0.0
2020-Jun-17 02:30N 25°44' W 080°10'0 0.0
2020-Jun-17 02:00N 25°44' W 080°10'0 0.0
2020-Jun-16 23:30N 25°44' W 080°10'0 0.0
2020-Jun-16 16:30N 25°44' W 080°10'0 0.0
2020-Jun-16 13:00N 25°44' W 080°10'0 0.0
2020-Jun-16 11:00N 25°44' W 080°10'0 0.0
2020-Jun-16 10:30N 25°44' W 080°10'0 0.0
2020-Jun-16 03:30N 25°44' W 080°10'0 0.0
2020-Jun-16 02:30N 25°44' W 080°10'0 0.0
2020-Jun-16 01:30N 25°44' W 080°10'0 0.0
2020-Jun-16 01:00N 25°44' W 080°10'0 0.0
2020-Jun-15 23:00N 25°44' W 080°10'0 0.0
2020-Jun-15 22:00N 25°44' W 080°10'0 0.0
2020-Jun-15 16:30N 25°44' W 080°10'0 0.0
2020-Jun-15 14:30N 25°44' W 080°10'0 0.0
2020-Jun-15 14:00N 25°44' W 080°10'0 0.0
2020-Jun-15 13:30N 25°44' W 080°10'0 0.0
2020-Jun-15 13:00N 25°44' W 080°10'5 5.1
2020-Jun-15 12:00N 25°39' W 080°12'5 3.4
2020-Jun-15 10:30N 25°44' W 080°10'0 0.0
2020-Jun-15 09:00N 25°44' W 080°10'0 0.0
2020-Jun-15 07:30N 25°44' W 080°10'0 0.0
2020-Jun-15 06:00N 25°44' W 080°10'0 0.0
2020-Jun-15 01:00N 25°44' W 080°10'0 0.0
2020-Jun-15 00:30N 25°44' W 080°10'0 0.0
2020-Jun-14 21:00N 25°44' W 080°10'0 0.0
2020-Jun-14 19:30N 25°44' W 080°10'0 0.0
2020-Jun-14 17:00N 25°44' W 080°10'0 0.0
2020-Jun-14 15:30N 25°44' W 080°10'0 0.0
2020-Jun-14 13:30N 25°44' W 080°10'0 0.0
2020-Jun-14 12:30N 25°44' W 080°10'0 0.0
2020-Jun-14 11:30N 25°44' W 080°10'0 0.0
2020-Jun-14 11:00N 25°44' W 080°10'0 0.0
2020-Jun-14 09:30N 25°44' W 080°10'0 0.0
2020-Jun-14 08:30N 25°44' W 080°10'0 0.0
2020-Jun-14 07:30N 25°44' W 080°10'0 0.0
2020-Jun-14 03:30N 25°44' W 080°10'0 0.0
2020-Jun-14 02:30N 25°44' W 080°10'0 0.0
2020-Jun-14 02:00N 25°44' W 080°10'0 0.0
2020-Jun-14 01:00N 25°44' W 080°10'0 0.0
2020-Jun-13 22:30N 25°44' W 080°10'0 0.0
2020-Jun-13 20:00N 25°44' W 080°10'0 0.0
2020-Jun-13 18:00N 25°44' W 080°10'0 0.0
2020-Jun-13 17:30N 25°44' W 080°10'0 0.0
2020-Jun-13 14:30N 25°44' W 080°10'0 0.0
2020-Jun-13 13:30N 25°44' W 080°10'  
Track history (hours):
 
Tides and Currents Weather Stations Pressure Air Temp Water Temp Dewpoint Dewpoint Depression Visibility Wind Speed Wind Dir Waves Ship Positions

Oceanographic research ship Walton Smith (USA)

Detailed information on ship capabilities available from University of Delaware's Ocean Information Center.

Owner: UNIVERSITY OF MIAMI, MIAMI, FL. More information available from US FCC via Universal Licensing System and Coast Guard Vessel Documentation Center.

Last reported at 2020-Jun-23 13:30 UTC. Time now 2020-Jul-14 12:19 UTC.
Position N 27°56' W 082°27'.
Warning: this ship's position is 20 days out of date.

; draft 2 m.

MMSI: 367020910.

Date/timePositionNaut miles runAvg speedWind from/ knotsBaromVisibWave heightAir tempDewpointWater temp
2020-Jun-23 13:30N 27°56' W 082°27'0 0.0
2020-Jun-23 11:00N 27°56' W 082°27'0 0.0
2020-Jun-23 10:30N 27°56' W 082°27'0 0.0
2020-Jun-23 10:00N 27°56' W 082°27'0 0.0
2020-Jun-23 09:30N 27°56' W 082°27'0 0.0
2020-Jun-23 08:30N 27°56' W 082°27'0 0.0
2020-Jun-23 05:30N 27°56' W 082°27'0 0.0
2020-Jun-23 04:49N 27°56' W 082°27'0 0.0
2020-Jun-23 04:00N 27°56' W 082°27'0 0.0
2020-Jun-23 03:01N 27°56' W 082°27'0 0.0
2020-Jun-23 01:30N 27°56' W 082°27'0 0.0
2020-Jun-22 23:30N 27°56' W 082°27'0 0.0
2020-Jun-22 21:30N 27°56' W 082°27'0 0.0
2020-Jun-22 21:00N 27°56' W 082°27'0 0.0
2020-Jun-22 20:30N 27°56' W 082°27'0 0.0
2020-Jun-22 20:00N 27°56' W 082°27'0 0.0
2020-Jun-22 16:30N 27°56' W 082°27'6 3.0
2020-Jun-22 14:30N 27°50' W 082°27'3 6.8
2020-Jun-22 14:00N 27°48' W 082°29'185 3.8
2020-Jun-20 13:18N 25°33' W 080°08'6 7.6
2020-Jun-20 12:30N 25°39' W 080°08'3 6.4
2020-Jun-20 12:00N 25°40' W 080°11'4 7.1
2020-Jun-20 11:30N 25°43' W 080°10'1 1.3
2020-Jun-20 11:00N 25°44' W 080°10'0 0.0
2020-Jun-20 08:30N 25°44' W 080°10'0 0.0
2020-Jun-20 07:30N 25°44' W 080°10'0 0.0
2020-Jun-20 06:30N 25°44' W 080°10'0 0.0
2020-Jun-20 02:30N 25°44' W 080°10'0 0.0
2020-Jun-20 00:00N 25°44' W 080°10'0 0.0
2020-Jun-19 20:00N 25°44' W 080°10'0 0.0
2020-Jun-19 17:00N 25°44' W 080°10'0 0.0
2020-Jun-19 16:30N 25°44' W 080°10'0 0.0
2020-Jun-19 15:00N 25°44' W 080°10'0 0.0
2020-Jun-19 11:00N 25°44' W 080°10'0 0.0
2020-Jun-19 10:00N 25°44' W 080°10'0 0.0
2020-Jun-19 09:00N 25°44' W 080°10'0 0.0
2020-Jun-19 08:30N 25°44' W 080°10'0 0.0
2020-Jun-19 06:00N 25°44' W 080°10'0 0.0
2020-Jun-19 05:00N 25°44' W 080°10'0 0.0
2020-Jun-18 22:00N 25°44' W 080°10'0 0.0
2020-Jun-18 21:30N 25°44' W 080°10'0 0.0
2020-Jun-18 19:30N 25°44' W 080°10'0 0.0
2020-Jun-18 18:00N 25°44' W 080°10'0 0.0
2020-Jun-18 17:00N 25°44' W 080°10'0 0.0
2020-Jun-18 15:30N 25°44' W 080°10'0 0.0
2020-Jun-18 15:00N 25°44' W 080°10'0 0.0
2020-Jun-18 13:30N 25°44' W 080°10'0 0.0
2020-Jun-18 11:30N 25°44' W 080°10'0 0.0
2020-Jun-18 11:00N 25°44' W 080°10'0 0.0
2020-Jun-18 10:30N 25°44' W 080°10'0 0.0
2020-Jun-18 06:30N 25°44' W 080°10'0 0.0
2020-Jun-18 04:30N 25°44' W 080°10'0 0.0
2020-Jun-18 02:30N 25°44' W 080°10'0 0.0
2020-Jun-18 01:30N 25°44' W 080°10'0 0.0
2020-Jun-17 22:30N 25°44' W 080°10'0 0.0
2020-Jun-17 20:00N 25°44' W 080°10'0 0.0
2020-Jun-17 19:30N 25°44' W 080°10'0 0.0
2020-Jun-17 19:00N 25°44' W 080°10'0 0.0
2020-Jun-17 18:30N 25°44' W 080°10'0 0.0
2020-Jun-17 17:30N 25°44' W 080°10'0 0.0
2020-Jun-17 15:00N 25°44' W 080°10'0 0.0
2020-Jun-17 14:30N 25°44' W 080°10'0 0.0
2020-Jun-17 13:00N 25°44' W 080°10'0 0.0
2020-Jun-17 11:30N 25°44' W 080°10'0 0.0
2020-Jun-17 10:30N 25°44' W 080°10'0 0.0
2020-Jun-17 10:00N 25°44' W 080°10'0 0.0
2020-Jun-17 05:00N 25°44' W 080°10'0 0.0
2020-Jun-17 04:30N 25°44' W 080°10'0 0.0
2020-Jun-17 03:00N 25°44' W 080°10'0 0.0
2020-Jun-17 02:30N 25°44' W 080°10'0 0.0
2020-Jun-17 02:00N 25°44' W 080°10'0 0.0
2020-Jun-16 23:30N 25°44' W 080°10'0 0.0
2020-Jun-16 16:30N 25°44' W 080°10'0 0.0
2020-Jun-16 13:00N 25°44' W 080°10'0 0.0
2020-Jun-16 11:00N 25°44' W 080°10'0 0.0
2020-Jun-16 10:30N 25°44' W 080°10'0 0.0
2020-Jun-16 03:30N 25°44' W 080°10'0 0.0
2020-Jun-16 02:30N 25°44' W 080°10'0 0.0
2020-Jun-16 01:30N 25°44' W 080°10'0 0.0
2020-Jun-16 01:00N 25°44' W 080°10'0 0.0
2020-Jun-15 23:00N 25°44' W 080°10'0 0.0
2020-Jun-15 22:00N 25°44' W 080°10'0 0.0
2020-Jun-15 16:30N 25°44' W 080°10'0 0.0
2020-Jun-15 14:30N 25°44' W 080°10'0 0.0
2020-Jun-15 14:00N 25°44' W 080°10'0 0.0
2020-Jun-15 13:30N 25°44' W 080°10'0 0.0
2020-Jun-15 13:00N 25°44' W 080°10'5 5.1
2020-Jun-15 12:00N 25°39' W 080°12'5 3.4
2020-Jun-15 10:30N 25°44' W 080°10'0 0.0
2020-Jun-15 09:00N 25°44' W 080°10'0 0.0
2020-Jun-15 07:30N 25°44' W 080°10'0 0.0
2020-Jun-15 06:00N 25°44' W 080°10'0 0.0
2020-Jun-15 01:00N 25°44' W 080°10'0 0.0
2020-Jun-15 00:30N 25°44' W 080°10'0 0.0
2020-Jun-14 21:00N 25°44' W 080°10'0 0.0
2020-Jun-14 19:30N 25°44' W 080°10'0 0.0
2020-Jun-14 17:00N 25°44' W 080°10'0 0.0
2020-Jun-14 15:30N 25°44' W 080°10'0 0.0
2020-Jun-14 13:30N 25°44' W 080°10'0 0.0
2020-Jun-14 12:30N 25°44' W 080°10'0 0.0
2020-Jun-14 11:30N 25°44' W 080°10'0 0.0
2020-Jun-14 11:00N 25°44' W 080°10'0 0.0
2020-Jun-14 09:30N 25°44' W 080°10'0 0.0
2020-Jun-14 08:30N 25°44' W 080°10'0 0.0
2020-Jun-14 07:30N 25°44' W 080°10'0 0.0
2020-Jun-14 03:30N 25°44' W 080°10'0 0.0
2020-Jun-14 02:30N 25°44' W 080°10'0 0.0
2020-Jun-14 02:00N 25°44' W 080°10'0 0.0
2020-Jun-14 01:00N 25°44' W 080°10'0 0.0
2020-Jun-13 22:30N 25°44' W 080°10'0 0.0
2020-Jun-13 20:00N 25°44' W 080°10'0 0.0
2020-Jun-13 18:00N 25°44' W 080°10'0 0.0
2020-Jun-13 17:30N 25°44' W 080°10'0 0.0
2020-Jun-13 14:30N 25°44' W 080°10'0 0.0
2020-Jun-13 13:30N 25°44' W 080°10'  

Dump ship's entire track history